createdAt,value
2022-10-19T00:02:18.079Z,101022.22
2022-10-19T00:05:20.974Z,101030.13
2022-10-19T00:08:23.585Z,101029.03
2022-10-19T00:11:28.526Z,101028.03
2022-10-19T00:14:31.008Z,101027.06
2022-10-19T00:17:35.058Z,101035.09
2022-10-19T00:20:39.073Z,101027.81
2022-10-19T00:23:42.452Z,101030.44
2022-10-19T00:26:44.963Z,101037.53
2022-10-19T00:29:47.741Z,101031.97
2022-10-19T00:32:50.216Z,101031.88
2022-10-19T00:35:53.006Z,101035.34
2022-10-19T00:38:56.445Z,101040.69
2022-10-19T00:41:59.222Z,101039.75
2022-10-19T00:45:09.603Z,101035.12
2022-10-19T00:48:16.067Z,101023.37
2022-10-19T00:51:18.827Z,101026.13
2022-10-19T00:54:21.816Z,101022.47
2022-10-19T00:57:27.184Z,101014.47
2022-10-19T01:00:30.179Z,101016.34
2022-10-19T01:03:33.475Z,101024.44
2022-10-19T01:06:36.255Z,101024.03
2022-10-19T01:09:38.830Z,101017.66
2022-10-19T01:13:00.429Z,101017.56
2022-10-19T01:16:13.075Z,101019.38
2022-10-19T01:19:37.314Z,101019.38
2022-10-19T01:23:17.856Z,101010.41
2022-10-19T01:26:20.533Z,101014.22
2022-10-19T01:29:32.929Z,101012.38
2022-10-19T01:33:01.371Z,101013.22
2022-10-19T01:36:23.526Z,101007.94
2022-10-19T01:39:49.139Z,101001.84
2022-10-19T01:43:00.772Z,101005.41
2022-10-19T01:46:07.788Z,101010.16
2022-10-19T01:49:43.084Z,101020.69
2022-10-19T01:52:46.769Z,101023.16
2022-10-19T01:55:51.555Z,101019.47
2022-10-19T01:58:57.067Z,101028.38
2022-10-19T02:01:59.698Z,101021.91
2022-10-19T02:05:04.049Z,101027.31
2022-10-19T02:08:20.906Z,101030.84
2022-10-19T02:11:24.262Z,101039.88
2022-10-19T02:14:34.249Z,101033.47
2022-10-19T02:17:42.215Z,101035.31
2022-10-19T02:20:45.548Z,101039.09
2022-10-19T02:23:50.511Z,101033.94
2022-10-19T02:26:56.721Z,101035.00
2022-10-19T02:29:59.556Z,101040.69
2022-10-19T02:33:02.010Z,101026.53
2022-10-19T02:36:05.114Z,101041.09
2022-10-19T02:39:08.014Z,101034.34
2022-10-19T02:42:22.245Z,101033.63
2022-10-19T02:45:30.009Z,101033.87
2022-10-19T02:48:34.169Z,101034.97
2022-10-19T02:51:58.831Z,101044.94
2022-10-19T02:55:01.667Z,101040.25
2022-10-19T02:58:04.206Z,101049.28
2022-10-19T03:01:07.074Z,101049.34
2022-10-19T03:04:09.704Z,101046.63
2022-10-19T03:07:14.956Z,101052.84
2022-10-19T03:10:18.066Z,101045.59
2022-10-19T03:13:20.832Z,101052.75
2022-10-19T03:16:23.303Z,101054.56
2022-10-19T03:19:26.623Z,101052.84
2022-10-19T03:22:29.072Z,101058.19
2022-10-19T03:25:31.956Z,101060.69
2022-10-19T03:28:34.791Z,101068.97
2022-10-19T03:31:37.572Z,101062.78
2022-10-19T03:34:40.032Z,101067.31
2022-10-19T03:37:42.782Z,101068.03
2022-10-19T03:40:46.478Z,101065.34
2022-10-19T03:43:49.596Z,101055.56
2022-10-19T03:46:52.056Z,101067.28
2022-10-19T03:49:54.869Z,101062.94
2022-10-19T03:52:57.411Z,101074.03
2022-10-19T03:56:16.256Z,101065.19
2022-10-19T03:59:18.805Z,101071.53
2022-10-19T04:02:21.503Z,101073.41
2022-10-19T04:05:24.284Z,101083.38
2022-10-19T04:08:26.744Z,101086.06
2022-10-19T04:11:30.938Z,101091.50
2022-10-19T04:14:39.392Z,101093.41
2022-10-19T04:17:55.604Z,101096.09
2022-10-19T04:21:02.064Z,101107.72
2022-10-19T04:24:06.862Z,101107.81
2022-10-19T04:27:09.367Z,101102.41
2022-10-19T04:30:12.074Z,101101.50
2022-10-19T04:33:14.958Z,101115.00
2022-10-19T04:36:17.670Z,101111.47
2022-10-19T04:39:20.099Z,101113.28
2022-10-19T04:42:22.833Z,101107.91
2022-10-19T04:45:25.262Z,101101.66
2022-10-19T04:48:27.973Z,101097.22
2022-10-19T04:51:30.482Z,101101.78
2022-10-19T04:54:33.190Z,101085.47
2022-10-19T04:57:35.932Z,101089.88
2022-10-19T05:00:39.946Z,101097.03
2022-10-19T05:03:42.786Z,101077.13
2022-10-19T05:06:45.531Z,101080.69
2022-10-19T05:09:47.997Z,101080.63
2022-10-19T05:12:50.933Z,101077.03
2022-10-19T05:16:00.795Z,101073.44
2022-10-19T05:19:03.738Z,101074.34
2022-10-19T05:22:06.368Z,101086.88
2022-10-19T05:25:09.336Z,101092.22
2022-10-19T05:28:11.938Z,101086.94
2022-10-19T05:31:17.574Z,101093.25
2022-10-19T05:34:20.182Z,101096.91
2022-10-19T05:37:23.345Z,101095.13
2022-10-19T05:40:28.562Z,101098.78
2022-10-19T05:43:31.374Z,101115.91
2022-10-19T05:46:34.170Z,101111.47
2022-10-19T05:49:37.040Z,101111.47
2022-10-19T05:52:39.564Z,101113.28
2022-10-19T05:55:44.053Z,101103.41
2022-10-19T05:58:46.870Z,101097.09
2022-10-19T06:01:49.929Z,101094.37
2022-10-19T06:04:52.725Z,101096.19
2022-10-19T06:07:55.394Z,101097.09
2022-10-19T06:11:09.730Z,101097.03
2022-10-19T06:14:15.178Z,101099.69
2022-10-19T06:17:18.038Z,101098.66
2022-10-19T06:20:21.116Z,101100.34
2022-10-19T06:23:24.050Z,101114.41
2022-10-19T06:26:27.165Z,101100.69
2022-10-19T06:29:30.114Z,101107.56
2022-10-19T06:32:33.960Z,101114.31
2022-10-19T06:35:36.675Z,101114.72
2022-10-19T06:38:39.505Z,101124.50
2022-10-19T06:41:42.200Z,101135.28
2022-10-19T06:44:47.660Z,101136.31
2022-10-19T06:47:50.422Z,101140.94
2022-10-19T06:51:00.526Z,101144.19
2022-10-19T06:54:03.432Z,101138.78
2022-10-19T06:57:08.097Z,101156.19
2022-10-19T07:00:13.041Z,101160.00
2022-10-19T07:03:15.582Z,101147.66
2022-10-19T07:06:18.634Z,101167.59
2022-10-19T07:09:22.504Z,101154.81
2022-10-19T07:12:25.310Z,101158.38
2022-10-19T07:15:27.901Z,101148.28
2022-10-19T07:18:30.737Z,101162.81
2022-10-19T07:21:33.454Z,101164.91
2022-10-19T07:24:36.470Z,101165.91
2022-10-19T07:27:40.522Z,101168.09
2022-10-19T07:30:43.691Z,101169.09
2022-10-19T07:33:46.914Z,101168.03
2022-10-19T07:36:49.827Z,101177.88
2022-10-19T07:39:52.302Z,101163.16
2022-10-19T07:42:55.065Z,101171.69
2022-10-19T07:46:05.408Z,101167.59
2022-10-19T07:49:10.380Z,101160.25
2022-10-19T07:52:13.484Z,101163.69
2022-10-19T07:55:18.640Z,101172.56
2022-10-19T07:58:21.325Z,101169.94
2022-10-19T08:01:37.080Z,101165.66
2022-10-19T08:04:59.587Z,101160.25
2022-10-19T08:08:04.232Z,101160.16
2022-10-19T08:11:38.122Z,101164.66
2022-10-19T08:14:41.521Z,101155.72
2022-10-19T08:17:46.145Z,101149.47
2022-10-19T08:20:50.589Z,101147.03
2022-10-19T08:23:54.463Z,101151.59
2022-10-19T08:26:57.442Z,101140.19
2022-10-19T08:30:00.248Z,101154.91
2022-10-19T08:33:04.637Z,101146.78
2022-10-19T08:36:08.518Z,101148.53
2022-10-19T08:39:14.602Z,101149.22
2022-10-19T08:42:25.072Z,101147.91
2022-10-19T08:45:38.727Z,101151.16
2022-10-19T08:48:43.847Z,101149.53
2022-10-19T08:51:50.470Z,101116.75
2022-10-19T08:54:55.747Z,101146.38
2022-10-19T08:58:23.154Z,101139.50
2022-10-19T09:01:58.986Z,101150.59
2022-10-19T09:05:07.586Z,101149.97
2022-10-19T09:08:15.386Z,101151.41
2022-10-19T09:11:27.775Z,101157.44
2022-10-19T09:14:36.486Z,101167.72
2022-10-19T09:17:39.137Z,101145.66
2022-10-19T09:20:43.512Z,101154.59
2022-10-19T09:23:58.356Z,101153.16
2022-10-19T09:27:02.136Z,101145.22
2022-10-19T09:30:10.064Z,101159.81
2022-10-19T09:33:22.570Z,101148.03
2022-10-19T09:36:46.326Z,101146.50
2022-10-19T09:39:54.989Z,101137.69
2022-10-19T09:42:59.241Z,101147.31
2022-10-19T09:46:20.094Z,101145.22
2022-10-19T09:49:46.317Z,101139.81
2022-10-19T09:52:54.532Z,101147.56
2022-10-19T09:56:01.416Z,101150.66
2022-10-19T09:59:04.237Z,101150.28
2022-10-19T10:02:06.650Z,101150.12
2022-10-19T10:05:15.283Z,101149.69
2022-10-19T10:08:21.487Z,101148.94
2022-10-19T10:11:33.389Z,101143.66
2022-10-19T10:14:36.932Z,101139.47
2022-10-19T10:17:40.117Z,101140.91
2022-10-19T10:21:07.110Z,101151.75
2022-10-19T10:24:21.624Z,101139.47
2022-10-19T10:27:34.163Z,101132.66
2022-10-19T10:30:37.803Z,101126.88
2022-10-19T10:33:45.037Z,101125.63
2022-10-19T10:36:54.128Z,101125.47
2022-10-19T10:40:00.529Z,101125.44
2022-10-19T10:43:12.736Z,101130.34
2022-10-19T10:46:17.338Z,101126.25
2022-10-19T10:49:23.696Z,101129.53
2022-10-19T10:52:28.570Z,101124.06
2022-10-19T10:55:32.221Z,101107.09
2022-10-19T10:58:43.807Z,101107.38
2022-10-19T11:01:58.528Z,101101.19
2022-10-19T11:05:11.246Z,101096.00
2022-10-19T11:08:23.418Z,101095.69
2022-10-19T11:11:32.378Z,101087.06
2022-10-19T11:14:49.133Z,101089.97
2022-10-19T11:18:13.200Z,101073.06
2022-10-19T11:21:57.671Z,101087.53
2022-10-19T11:25:21.618Z,101085.56
2022-10-19T11:28:40.912Z,101084.34
2022-10-19T11:31:53.839Z,101077.22
2022-10-19T11:35:14.758Z,101073.19
2022-10-19T11:38:55.793Z,101074.22
2022-10-19T11:42:12.175Z,101033.47
2022-10-19T11:45:18.551Z,101043.72
2022-10-19T11:48:43.060Z,101061.56
2022-10-19T11:52:04.098Z,101054.16
2022-10-19T11:55:35.547Z,101039.34
2022-10-19T11:58:41.023Z,101036.34
2022-10-19T12:01:43.769Z,101032.00
2022-10-19T12:05:04.583Z,101035.59
2022-10-19T12:08:07.658Z,101021.91
2022-10-19T12:11:24.209Z,101024.97
2022-10-19T12:14:32.387Z,101019.44
2022-10-19T12:17:38.243Z,101014.50
2022-10-19T12:20:54.666Z,101002.41
2022-10-19T12:23:59.099Z,101004.13
2022-10-19T12:27:02.034Z,101009.66
2022-10-19T12:30:13.974Z,100999.37
2022-10-19T12:33:33.879Z,100983.19
2022-10-19T12:36:55.434Z,100979.56
2022-10-19T12:40:01.061Z,100976.66
2022-10-19T12:43:09.591Z,100978.63
2022-10-19T12:46:19.631Z,100981.31
2022-10-19T12:49:35.407Z,100967.50
2022-10-19T12:52:45.407Z,100970.22
2022-10-19T12:56:01.766Z,100949.19
2022-10-19T12:59:04.327Z,100964.97
2022-10-19T13:02:25.999Z,100960.97
2022-10-19T13:05:29.892Z,100973.00
2022-10-19T13:08:42.812Z,100968.59
2022-10-19T13:12:25.873Z,100975.28
2022-10-19T13:15:37.753Z,100965.41
2022-10-19T13:19:14.237Z,100963.63
2022-10-19T13:22:26.223Z,100963.63
2022-10-19T13:25:30.103Z,100963.97
2022-10-19T13:28:32.757Z,100954.31
2022-10-19T13:31:37.504Z,100971.41
2022-10-19T13:34:41.135Z,100967.91
2022-10-19T13:37:43.896Z,100977.59
2022-10-19T13:40:48.341Z,100977.06
2022-10-19T13:44:12.122Z,100968.22
2022-10-19T13:50:55.090Z,100969.75
2022-10-19T13:54:22.076Z,100968.69
2022-10-19T13:57:43.311Z,100969.66
2022-10-19T14:00:52.171Z,100966.66
2022-10-19T14:04:04.520Z,100958.87
2022-10-19T14:07:21.518Z,100965.50
2022-10-19T14:10:32.638Z,100961.03
2022-10-19T14:13:35.632Z,100963.81
2022-10-19T14:17:04.128Z,100969.88
2022-10-19T14:20:25.847Z,100974.81
2022-10-19T14:23:31.361Z,100965.72
2022-10-19T14:26:34.665Z,100971.47
2022-10-19T14:29:47.011Z,100972.69
2022-10-19T14:32:49.557Z,100964.88
2022-10-19T14:35:52.858Z,100980.44
2022-10-19T14:38:56.167Z,100978.72
2022-10-19T14:42:10.357Z,100976.31
2022-10-19T14:45:16.272Z,100984.84
2022-10-19T14:48:19.062Z,100986.84
2022-10-19T14:51:36.725Z,100984.28
2022-10-19T14:54:42.643Z,100974.38
2022-10-19T14:57:47.918Z,100977.38
2022-10-19T15:00:52.562Z,100990.16
2022-10-19T15:03:55.348Z,100989.37
2022-10-19T15:06:59.327Z,101003.25
2022-10-19T15:10:05.771Z,100986.06
2022-10-19T15:13:19.868Z,100978.28
2022-10-19T15:16:29.696Z,100983.75
2022-10-19T15:19:39.667Z,100993.06
2022-10-19T15:22:42.143Z,100991.53
2022-10-19T15:25:44.932Z,101010.84
2022-10-19T15:28:48.514Z,101011.13
2022-10-19T15:31:56.378Z,101018.44
2022-10-19T15:34:59.133Z,101010.50
2022-10-19T15:38:03.977Z,101022.59
2022-10-19T15:41:06.600Z,101020.91
2022-10-19T15:44:29.895Z,101032.94
2022-10-19T15:47:32.487Z,101029.69
2022-10-19T15:50:47.879Z,101038.72
2022-10-19T15:53:57.524Z,101039.59
2022-10-19T15:57:00.370Z,101042.31
2022-10-19T16:00:22.247Z,101048.56
2022-10-19T16:03:25.064Z,101054.88
2022-10-19T16:06:30.305Z,101039.66
2022-10-19T16:09:33.229Z,101053.38
2022-10-19T16:12:35.751Z,101058.94
2022-10-19T16:15:38.603Z,101060.09
2022-10-19T16:18:41.304Z,101069.22
2022-10-19T16:21:49.314Z,101073.63
2022-10-19T16:24:52.875Z,101063.87
2022-10-19T16:27:55.688Z,101069.09
2022-10-19T16:30:58.227Z,101077.37
2022-10-19T16:34:01.115Z,101082.03
2022-10-19T16:37:06.672Z,101087.41
2022-10-19T16:40:10.499Z,101085.66
2022-10-19T16:43:12.952Z,101097.53
2022-10-19T16:46:15.826Z,101090.22
2022-10-19T16:49:18.327Z,101088.34
2022-10-19T16:52:21.502Z,101104.47
2022-10-19T16:55:24.165Z,101102.97
2022-10-19T16:58:27.333Z,101108.34
2022-10-19T17:01:31.302Z,101110.25
2022-10-19T17:04:34.468Z,101109.28
2022-10-19T17:07:36.913Z,101111.22
2022-10-19T17:10:43.353Z,101125.69
2022-10-19T17:13:48.093Z,101127.50
2022-10-19T17:16:51.069Z,101130.31
2022-10-19T17:19:53.722Z,101128.50
2022-10-19T17:22:56.768Z,101135.75
2022-10-19T17:25:59.238Z,101137.50
2022-10-19T17:29:02.957Z,101143.84
2022-10-19T17:32:05.763Z,101142.06
2022-10-19T17:35:08.824Z,101142.09
2022-10-19T17:38:11.654Z,101150.19
2022-10-19T17:41:17.039Z,101165.50
2022-10-19T17:44:21.173Z,101163.75
2022-10-19T17:47:24.531Z,101174.62
2022-10-19T17:50:29.127Z,101181.84
2022-10-19T17:53:33.743Z,101178.16
2022-10-19T17:56:37.419Z,101183.66
2022-10-19T17:59:52.630Z,101181.00
2022-10-19T18:02:57.626Z,101180.09
2022-10-19T18:06:12.056Z,101176.56
2022-10-19T18:09:14.865Z,101187.31
2022-10-19T18:12:18.268Z,101183.75
2022-10-19T18:15:20.967Z,101182.84
2022-10-19T18:18:24.601Z,101182.84
2022-10-19T18:21:31.098Z,101201.72
2022-10-19T18:24:34.785Z,101187.34
2022-10-19T18:27:37.739Z,101189.16
2022-10-19T18:30:45.189Z,101190.94
2022-10-19T18:33:54.643Z,101192.75
2022-10-19T18:36:57.754Z,101199.94
2022-10-19T18:40:00.450Z,101204.41
2022-10-19T18:43:04.709Z,101208.91
2022-10-19T18:46:08.724Z,101215.12
2022-10-19T18:49:12.763Z,101233.03
2022-10-19T18:55:32.620Z,101233.00
2022-10-19T18:58:35.936Z,101231.19
2022-10-19T19:01:39.685Z,101235.66
2022-10-19T19:04:42.687Z,101235.56
2022-10-19T19:07:45.725Z,101249.00
2022-10-19T19:10:48.589Z,101246.28
2022-10-19T19:14:03.030Z,101250.75
2022-10-19T19:17:05.729Z,101232.78
2022-10-19T19:20:09.112Z,101258.78
2022-10-19T19:23:12.398Z,101253.41
2022-10-19T19:26:15.897Z,101252.44
2022-10-19T19:29:19.778Z,101267.63
2022-10-19T19:32:23.481Z,101268.47
2022-10-19T19:35:26.453Z,101270.16
2022-10-19T19:38:30.275Z,101277.22
2022-10-19T19:41:34.254Z,101286.09
2022-10-19T19:44:37.340Z,101286.00
2022-10-19T19:47:40.095Z,101277.78
2022-10-19T19:50:46.823Z,101292.97
2022-10-19T19:53:49.625Z,101293.81
2022-10-19T19:56:53.779Z,101304.50
2022-10-19T19:59:56.614Z,101307.22
2022-10-19T20:03:00.494Z,101309.78
2022-10-19T20:06:05.361Z,101299.97
2022-10-19T20:09:08.999Z,101305.22
2022-10-19T20:12:12.001Z,101310.69
2022-10-19T20:15:16.572Z,101314.34
2022-10-19T20:18:19.670Z,101317.91
2022-10-19T20:21:25.725Z,101320.50
2022-10-19T20:24:28.723Z,101322.31
2022-10-19T20:27:34.967Z,101325.78
2022-10-19T20:30:40.239Z,101318.56
2022-10-19T20:33:44.373Z,101317.53
2022-10-19T20:36:48.259Z,101326.50
2022-10-19T20:39:51.932Z,101328.22
2022-10-19T20:42:56.443Z,101321.84
2022-10-19T20:46:12.903Z,101322.63
2022-10-19T20:49:15.773Z,101326.16
2022-10-19T20:52:18.490Z,101326.03
2022-10-19T20:55:22.130Z,101328.47
2022-10-19T20:58:24.618Z,101330.22
2022-10-19T21:01:27.984Z,101327.59
2022-10-19T21:04:30.695Z,101328.56
2022-10-19T21:07:33.614Z,101339.25
2022-10-19T21:10:36.830Z,101343.66
2022-10-19T21:13:39.623Z,101347.19
2022-10-19T21:16:43.011Z,101345.37
2022-10-19T21:19:45.781Z,101346.16
2022-10-19T21:22:48.272Z,101342.50
2022-10-19T21:25:55.001Z,101339.84
2022-10-19T21:28:58.010Z,101337.94
2022-10-19T21:32:00.754Z,101332.53
2022-10-19T21:35:03.609Z,101332.50
2022-10-19T21:38:06.371Z,101342.31
2022-10-19T21:41:13.033Z,101342.34
2022-10-19T21:44:17.059Z,101340.41
2022-10-19T21:47:19.507Z,101332.37
2022-10-19T21:50:24.103Z,101325.41
2022-10-19T21:53:26.753Z,101328.06
2022-10-19T21:56:29.600Z,101329.78
2022-10-19T21:59:32.043Z,101329.78
2022-10-19T22:02:34.805Z,101324.34
2022-10-19T22:05:37.542Z,101327.88
2022-10-19T22:08:40.946Z,101316.19
2022-10-19T22:11:44.188Z,101311.63
2022-10-19T22:14:46.615Z,101314.19
2022-10-19T22:17:50.082Z,101309.50
2022-10-19T22:20:52.954Z,101311.09
2022-10-19T22:24:00.960Z,101320.69
2022-10-19T22:27:03.513Z,101308.06
2022-10-19T22:30:07.770Z,101310.63
2022-10-19T22:33:10.666Z,101305.13
2022-10-19T22:36:13.569Z,101300.44
2022-10-19T22:39:16.507Z,101303.19
2022-10-19T22:42:19.198Z,101302.97
2022-10-19T22:45:21.691Z,101299.25
2022-10-19T22:48:24.494Z,101310.09
2022-10-19T22:51:27.030Z,101314.31
2022-10-19T22:54:32.143Z,101310.50
2022-10-19T22:57:34.657Z,101322.16
2022-10-19T23:00:38.836Z,101332.22
2022-10-19T23:03:41.641Z,101322.41
2022-10-19T23:06:44.436Z,101321.34
2022-10-19T23:09:46.960Z,101321.41
2022-10-19T23:12:53.554Z,101306.38
2022-10-19T23:15:56.229Z,101324.19
2022-10-19T23:18:59.013Z,101325.19
2022-10-19T23:22:01.588Z,101316.78
2022-10-19T23:25:04.934Z,101315.03
2022-10-19T23:28:07.441Z,101321.50
2022-10-19T23:31:14.251Z,101309.31
2022-10-19T23:34:16.802Z,101307.69
2022-10-19T23:37:19.607Z,101304.16
2022-10-19T23:40:26.683Z,101320.09
2022-10-19T23:43:29.851Z,101321.66
2022-10-19T23:46:32.378Z,101315.28
2022-10-19T23:49:35.124Z,101315.44
2022-10-19T23:52:37.613Z,101327.03
2022-10-19T23:55:40.391Z,101333.16
2022-10-19T23:58:43.588Z,101337.66
